Time;durP1;ratioP1;P1;durP2;ratioP2;P2;SDS_P1;SDS_P2;PMS_P1;PMS_P2;Temp;Humidity;BMP_temperature;BMP_pressure;BME280_temperature;BME280_humidity;BME280_pressure;Samples;Min_cycle;Max_cycle;Signal;HPM_P1;HPM_P2
2021/03/14 00:01:05;;;;;;;2.55;0.70;;;5.60;1.00;;;;;;5074627;28;20432;-78
2021/03/14 00:03:35;;;;;;;8.60;2.53;;;5.60;1.00;;;;;;5055501;28;20168;-78
2021/03/14 00:06:09;;;;;;;1.38;0.77;;;5.60;1.00;;;;;;5081541;28;20241;-78
2021/03/14 00:08:39;;;;;;;0.70;0.70;;;5.60;1.00;;;;;;5075487;28;20204;-78
2021/03/14 00:11:26;;;;;;;0.55;0.55;;;5.60;1.00;;;;;;5074526;28;20179;-78
2021/03/14 00:13:52;;;;;;;0.43;0.43;;;5.60;1.00;;;;;;5073987;28;20167;-78
2021/03/14 00:16:18;;;;;;;0.50;0.50;;;5.60;1.00;;;;;;5074125;28;20450;-73
2021/03/14 00:18:44;;;;;;;1.47;0.80;;;;;;;;;;5072411;28;20657;-73
2021/03/14 00:21:10;;;;;;;14.00;0.73;;;5.50;1.00;;;;;;5069711;28;20672;-73
2021/03/14 00:23:36;;;;;;;1.10;0.70;;;5.40;1.00;;;;;;5073301;28;20178;-72
2021/03/14 00:26:04;;;;;;;0.75;0.50;;;5.40;1.00;;;;;;5073755;28;20190;-72
2021/03/14 00:28:30;;;;;;;1.25;0.50;;;5.40;1.00;;;;;;5073548;28;20187;-72
2021/03/14 00:30:56;;;;;;;3.50;0.73;;;;;;;;;;5063571;28;20197;-73
2021/03/14 00:33:22;;;;;;;2.92;0.90;;;5.20;1.00;;;;;;5053684;28;20386;-72
2021/03/14 00:35:48;;;;;;;2.42;0.60;;;5.20;1.00;;;;;;5053921;28;20182;-72
2021/03/14 00:38:14;;;;;;;0.73;0.43;;;5.10;1.00;;;;;;5064599;28;20536;-72
2021/03/14 00:40:40;;;;;;;0.90;0.73;;;5.00;1.00;;;;;;5072309;28;20178;-72
2021/03/14 00:43:07;;;;;;;2.15;0.60;;;4.90;1.00;;;;;;5073493;28;20166;-72
2021/03/14 00:45:36;;;;;;;5.22;0.50;;;4.90;1.00;;;;;;5066265;28;20219;-72
2021/03/14 00:48:09;;;;;;;0.40;0.40;;;4.80;1.00;;;;;;5053918;28;20182;-78
2021/03/14 00:50:51;;;;;;;6.72;0.60;;;4.80;1.00;;;;;;5053763;28;20183;-78
2021/03/14 00:53:21;;;;;;;2.13;1.13;;;4.50;1.00;;;;;;5067841;28;20364;-78
2021/03/14 00:55:47;;;;;;;0.40;0.40;;;4.50;1.00;;;;;;5073803;28;20238;-78
2021/03/14 00:58:21;;;;;;;0.63;0.50;;;4.50;1.00;;;;;;5073333;28;20190;-78
2021/03/14 01:00:51;;;;;;;4.00;0.50;;;;;;;;;;5064760;28;20484;-78
2021/03/14 01:03:17;;;;;;;0.65;0.65;;;4.60;1.00;;;;;;5053583;28;20217;-73
2021/03/14 01:05:43;;;;;;;0.50;0.50;;;4.60;1.00;;;;;;5074528;28;20574;-72
2021/03/14 01:08:09;;;;;;;0.70;0.70;;;;;;;;;;5072929;28;20694;-73
2021/03/14 01:10:35;;;;;;;6.63;0.60;;;4.60;1.00;;;;;;5073291;28;20630;-72
2021/03/14 01:13:01;;;;;;;3.63;0.80;;;4.60;1.00;;;;;;5073356;28;20171;-72
2021/03/14 01:15:26;;;;;;;2.63;0.50;;;4.60;1.00;;;;;;5065800;28;20191;-72
2021/03/14 01:17:57;;;;;;;0.77;0.50;;;4.70;1.00;;;;;;5053296;28;20227;-78
2021/03/14 01:20:27;;;;;;;0.50;0.50;;;4.70;1.00;;;;;;5072402;28;20948;-78
2021/03/14 01:23:03;;;;;;;0.70;0.57;;;4.60;1.00;;;;;;5057568;28;20183;-78
2021/03/14 01:25:39;;;;;;;2.17;0.52;;;4.60;1.00;;;;;;5053178;28;20152;-78
2021/03/14 01:28:15;;;;;;;0.95;0.80;;;4.70;1.00;;;;;;5053623;28;20187;-78
2021/03/14 01:30:41;;;;;;;4.45;0.82;;;4.70;1.00;;;;;;5053490;28;20215;-78
2021/03/14 01:33:07;;;;;;;5.67;1.10;;;;;;;;;;5053397;28;20182;-72
2021/03/14 01:35:32;;;;;;;2.78;0.90;;;4.90;1.00;;;;;;5057116;28;20467;-72
2021/03/14 01:37:58;;;;;;;0.50;0.50;;;;;;;;;;5056592;28;20286;-72
2021/03/14 01:40:25;;;;;;;3.10;0.68;;;5.00;1.00;;;;;;5056946;28;20607;-72
2021/03/14 01:42:51;;;;;;;3.00;0.75;;;5.10;1.00;;;;;;5056639;28;20167;-73
2021/03/14 01:45:17;;;;;;;0.73;0.73;;;5.10;1.00;;;;;;5063116;28;20298;-72
2021/03/14 01:47:51;;;;;;;1.25;0.80;;;5.20;1.00;;;;;;5076806;28;20446;-73
2021/03/14 01:50:22;;;;;;;4.53;0.77;;;5.20;1.00;;;;;;5076504;28;20187;-73
2021/03/14 01:52:49;;;;;;;2.15;0.60;;;5.30;1.00;;;;;;5076400;28;20602;-73
2021/03/14 01:55:16;;;;;;;3.72;0.93;;;5.30;1.00;;;;;;5076171;28;20189;-73
2021/03/14 01:57:44;;;;;;;1.55;0.77;;;5.30;1.00;;;;;;5075564;28;20179;-73
2021/03/14 02:00:14;;;;;;;5.90;1.13;;;5.30;1.00;;;;;;5071452;28;20738;-72
2021/03/14 02:02:51;;;;;;;2.60;0.50;;;5.30;1.00;;;;;;5056550;28;20174;-78
2021/03/14 02:05:18;;;;;;;1.50;0.60;;;5.30;1.00;;;;;;5056304;28;20171;-78
2021/03/14 02:07:47;;;;;;;1.55;0.80;;;5.30;1.00;;;;;;5056562;28;20202;-78
2021/03/14 02:10:15;;;;;;;0.80;0.68;;;5.30;1.00;;;;;;5056698;28;20210;-78
2021/03/14 02:12:46;;;;;;;0.60;0.50;;;5.40;1.00;;;;;;5056203;28;20615;-78
2021/03/14 02:15:44;;;;;;;1.15;0.70;;;5.40;1.00;;;;;;5060749;28;20167;-78
2021/03/14 02:18:11;;;;;;;2.80;0.82;;;5.40;1.00;;;;;;5076147;28;20174;-78
2021/03/14 02:20:37;;;;;;;0.88;0.65;;;5.40;1.00;;;;;;5077760;28;20672;-78
2021/03/14 02:23:27;;;;;;;0.55;0.55;;;5.50;1.00;;;;;;5073371;28;20232;-78
2021/03/14 02:26:02;;;;;;;0.50;0.50;;;5.50;1.00;;;;;;5076253;28;20641;-78
2021/03/14 02:28:45;;;;;;;2.55;0.63;;;5.50;1.00;;;;;;5075846;28;20597;-78
2021/03/14 02:31:18;;;;;;;0.60;0.60;;;5.50;1.00;;;;;;5074870;28;20206;-78
2021/03/14 02:34:13;;;;;;;1.20;0.68;;;5.60;1.00;;;;;;5075869;28;20657;-78
2021/03/14 02:36:46;;;;;;;5.53;0.70;;;5.50;1.00;;;;;;5074576;28;20527;-78
2021/03/14 02:39:27;;;;;;;0.60;0.60;;;5.60;1.00;;;;;;5076200;28;20202;-78
2021/03/14 02:42:06;;;;;;;1.33;0.90;;;5.60;1.00;;;;;;5075530;28;20504;-78
2021/03/14 02:44:43;;;;;;;0.57;0.50;;;5.60;1.00;;;;;;5056378;28;20537;-78
2021/03/14 02:47:10;;;;;;;3.33;0.75;;;5.60;1.00;;;;;;5055770;28;20176;-78
2021/03/14 02:49:40;;;;;;;2.97;0.65;;;5.70;1.00;;;;;;5056262;28;20615;-78
2021/03/14 02:52:09;;;;;;;3.38;1.10;;;5.60;1.00;;;;;;5056125;28;20194;-78
2021/03/14 02:54:41;;;;;;;3.10;0.98;;;5.80;1.00;;;;;;5055598;28;20174;-78
2021/03/14 02:57:08;;;;;;;0.60;0.60;;;5.60;1.00;;;;;;5056050;28;20167;-78
2021/03/14 02:59:35;;;;;;;4.95;0.90;;;5.60;1.00;;;;;;5055155;28;20175;-78
2021/03/14 03:02:10;;;;;;;3.95;0.85;;;5.60;1.00;;;;;;5074375;28;20182;-78
2021/03/14 03:04:39;;;;;;;1.42;0.77;;;5.60;1.00;;;;;;5073792;28;20213;-78
2021/03/14 03:07:10;;;;;;;5.20;1.10;;;5.50;1.00;;;;;;5074602;28;20194;-78
2021/03/14 03:09:36;;;;;;;1.92;0.70;;;5.50;1.00;;;;;;5075223;28;20404;-78
2021/03/14 03:12:10;;;;;;;0.70;0.70;;;5.50;1.00;;;;;;5074743;28;20670;-78
2021/03/14 03:14:38;;;;;;;1.60;1.13;;;5.50;1.00;;;;;;5075437;28;20152;-78
2021/03/14 03:17:17;;;;;;;1.88;0.85;;;5.50;1.00;;;;;;5074707;28;20194;-78
2021/03/14 03:19:44;;;;;;;2.27;0.80;;;5.50;1.00;;;;;;5075929;28;20185;-78
2021/03/14 03:22:10;;;;;;;4.97;0.97;;;5.50;1.00;;;;;;5078751;28;20504;-78
2021/03/14 03:24:39;;;;;;;1.85;0.93;;;5.50;1.00;;;;;;5074489;28;20817;-78
2021/03/14 03:27:05;;;;;;;2.40;1.00;;;5.60;1.00;;;;;;5074536;28;20595;-78
2021/03/14 03:29:46;;;;;;;1.10;0.90;;;5.60;1.00;;;;;;5074891;28;20888;-78
2021/03/14 03:32:27;;;;;;;1.63;0.70;;;5.70;1.00;;;;;;5074937;28;20166;-78
2021/03/14 03:34:53;;;;;;;1.50;0.70;;;5.70;1.00;;;;;;5075310;28;20410;-78
2021/03/14 03:37:27;;;;;;;0.77;0.77;;;5.70;1.00;;;;;;5074330;28;20402;-78
2021/03/14 03:39:57;;;;;;;1.80;0.77;;;5.70;1.00;;;;;;5074484;28;20164;-78
2021/03/14 03:42:26;;;;;;;1.70;0.83;;;5.70;1.00;;;;;;5074713;28;20187;-78
2021/03/14 03:44:58;;;;;;;1.27;0.73;;;5.70;1.00;;;;;;5072856;28;20393;-78
2021/03/14 03:47:46;;;;;;;3.00;1.13;;;5.60;1.00;;;;;;5054376;28;20937;-78
2021/03/14 03:50:16;;;;;;;11.23;0.90;;;5.50;1.00;;;;;;5054338;28;20469;-73
2021/03/14 03:52:44;;;;;;;4.43;0.60;;;5.50;1.00;;;;;;5054507;28;20419;-73
2021/03/14 03:55:11;;;;;;;3.15;0.80;;;5.50;1.00;;;;;;5069521;28;20168;-73
2021/03/14 03:57:38;;;;;;;1.55;0.82;;;5.50;1.00;;;;;;5053519;28;20186;-73
2021/03/14 04:00:08;;;;;;;10.18;1.08;;;5.50;1.00;;;;;;5054308;28;20207;-73
2021/03/14 04:02:35;;;;;;;1.70;0.82;;;5.60;1.00;;;;;;5070234;28;20192;-73
2021/03/14 04:05:10;;;;;;;2.35;0.95;;;5.70;1.00;;;;;;5074284;28;20614;-72
2021/03/14 04:07:42;;;;;;;1.50;0.80;;;5.60;1.00;;;;;;5073485;28;20175;-73
2021/03/14 04:10:11;;;;;;;0.50;0.50;;;5.60;1.00;;;;;;5087391;28;20206;-73
2021/03/14 04:12:39;;;;;;;4.50;1.53;;;5.60;1.00;;;;;;5059272;28;20167;-73
2021/03/14 04:15:09;;;;;;;0.70;0.70;;;5.60;1.00;;;;;;5054021;28;20414;-72
2021/03/14 04:17:40;;;;;;;0.77;0.77;;;5.60;1.00;;;;;;5053441;28;20176;-73
2021/03/14 04:20:40;;;;;;;1.50;0.80;;;5.70;1.00;;;;;;5054645;28;20164;-78
2021/03/14 04:23:44;;;;;;;1.00;0.90;;;5.70;1.00;;;;;;5062511;28;20252;-78
2021/03/14 04:26:11;;;;;;;2.43;0.80;;;5.80;1.00;;;;;;5054112;28;20160;-78
2021/03/14 04:28:57;;;;;;;1.48;0.70;;;5.80;1.00;;;;;;5053866;28;20414;-79
2021/03/14 04:31:46;;;;;;;0.80;0.70;;;5.80;1.00;;;;;;5068082;28;20205;-78
2021/03/14 04:34:14;;;;;;;3.33;1.00;;;5.70;1.00;;;;;;5073872;28;20550;-73
2021/03/14 04:36:46;;;;;;;3.08;0.80;;;5.80;1.00;;;;;;5073663;28;20424;-73
2021/03/14 04:39:13;;;;;;;1.27;0.90;;;5.80;1.00;;;;;;5073309;28;20178;-73
2021/03/14 04:41:42;;;;;;;2.15;0.70;;;5.80;1.00;;;;;;5073574;28;20492;-73
2021/03/14 04:44:09;;;;;;;1.30;0.90;;;5.90;1.00;;;;;;5072468;28;20163;-72
2021/03/14 04:46:35;;;;;;;2.83;0.97;;;5.90;1.00;;;;;;5060804;28;21024;-74
2021/03/14 04:49:04;;;;;;;0.83;0.60;;;5.80;1.00;;;;;;5082304;28;20496;-73
2021/03/14 04:51:32;;;;;;;1.67;0.53;;;5.80;1.00;;;;;;5073353;28;20476;-73
2021/03/14 04:53:58;;;;;;;2.40;0.70;;;5.80;1.00;;;;;;5092840;28;20404;-73
2021/03/14 04:56:26;;;;;;;4.53;1.27;;;5.80;1.00;;;;;;5093312;28;20952;-73
2021/03/14 04:58:58;;;;;;;0.70;0.60;;;5.80;1.00;;;;;;5093568;28;20395;-73
2021/03/14 05:01:24;;;;;;;3.72;1.10;;;5.80;1.00;;;;;;5072725;28;20417;-73
2021/03/14 05:03:55;;;;;;;1.40;0.80;;;5.80;1.00;;;;;;5073506;28;20167;-72
2021/03/14 05:06:27;;;;;;;0.67;0.67;;;5.70;1.00;;;;;;5073279;28;20155;-73
2021/03/14 05:08:54;;;;;;;3.05;0.65;;;5.80;1.00;;;;;;5074404;28;20399;-72
2021/03/14 05:11:21;;;;;;;0.60;0.60;;;5.70;1.00;;;;;;5077124;28;20630;-73
2021/03/14 05:13:47;;;;;;;2.33;0.70;;;5.70;1.00;;;;;;5076551;28;20389;-73
2021/03/14 05:16:15;;;;;;;0.67;0.53;;;5.80;1.00;;;;;;5069784;28;20509;-73
2021/03/14 05:18:43;;;;;;;0.67;0.50;;;5.70;1.00;;;;;;5077161;28;20939;-73
2021/03/14 05:21:09;;;;;;;1.43;0.63;;;7.70;1.00;;;;;;5089599;28;20419;-78
2021/03/14 05:23:40;;;;;;;1.02;0.70;;;5.70;1.00;;;;;;5086364;28;20408;-78
2021/03/14 05:26:28;;;;;;;0.50;0.50;;;5.70;1.00;;;;;;5072040;28;20183;-79
2021/03/14 05:28:56;;;;;;;0.50;0.40;;;5.60;1.00;;;;;;5073424;28;20905;-78
2021/03/14 05:31:39;;;;;;;0.50;0.50;;;5.60;1.00;;;;;;5071152;28;20487;-78
2021/03/14 05:34:07;;;;;;;1.13;0.50;;;5.50;1.00;;;;;;5077255;28;20228;-73
2021/03/14 05:36:34;;;;;;;0.50;0.50;;;5.40;1.00;;;;;;5076823;28;20166;-73
2021/03/14 05:39:05;;;;;;;0.40;0.40;;;5.30;1.00;;;;;;5076503;28;20616;-73
2021/03/14 05:41:31;;;;;;;0.50;0.50;;;5.20;1.00;;;;;;5076644;28;20262;-72
2021/03/14 05:43:59;;;;;;;0.40;0.40;;;5.10;1.00;;;;;;5075851;28;20440;-73
2021/03/14 05:46:29;;;;;;;0.50;0.50;;;5.10;1.00;;;;;;5076582;28;20633;-73
2021/03/14 05:49:03;;;;;;;0.40;0.40;;;5.00;1.00;;;;;;5075519;28;20167;-74
2021/03/14 05:51:32;;;;;;;1.55;0.50;;;5.00;1.00;;;;;;5071678;28;20203;-73
2021/03/14 05:54:03;;;;;;;1.25;0.40;;;4.90;1.00;;;;;;5074633;28;20511;-73
2021/03/14 05:56:31;;;;;;;0.73;0.50;;;4.90;1.00;;;;;;5076280;28;20156;-72
2021/03/14 05:59:03;;;;;;;0.60;0.60;;;4.90;1.00;;;;;;5074693;28;20164;-72
2021/03/14 06:01:30;;;;;;;1.00;0.50;;;4.80;1.00;;;;;;5076051;28;20262;-72
2021/03/14 06:03:57;;;;;;;0.50;0.50;;;4.70;1.00;;;;;;5074971;28;20179;-73
2021/03/14 06:06:27;;;;;;;0.77;0.50;;;4.70;1.00;;;;;;5076542;28;20163;-72
2021/03/14 06:08:54;;;;;;;0.60;0.60;;;4.80;1.00;;;;;;5070012;28;20168;-73
2021/03/14 06:11:20;;;;;;;0.95;0.50;;;4.80;1.00;;;;;;5078223;28;20222;-73
2021/03/14 06:13:47;;;;;;;0.60;0.60;;;4.80;1.00;;;;;;5085358;28;20167;-73
2021/03/14 06:16:13;;;;;;;1.77;0.80;;;4.90;1.00;;;;;;5061894;28;20914;-73
2021/03/14 06:18:46;;;;;;;0.60;0.60;;;4.90;1.00;;;;;;5070083;28;20178;-73
2021/03/14 06:21:21;;;;;;;2.75;0.60;;;5.00;1.00;;;;;;5084682;28;20173;-73
2021/03/14 06:24:10;;;;;;;6.75;1.50;;;5.10;1.00;;;;;;5064152;28;20175;-72
2021/03/14 06:26:39;;;;;;;1.42;0.85;;;5.10;1.00;;;;;;5073791;28;20510;-73
2021/03/14 06:29:17;;;;;;;1.02;0.70;;;5.20;1.00;;;;;;5062460;28;20204;-78
2021/03/14 06:31:53;;;;;;;0.90;0.70;;;5.20;1.00;;;;;;5072456;28;20194;-72
2021/03/14 06:34:39;;;;;;;1.08;0.63;;;5.20;1.00;;;;;;5075610;28;20159;-72
2021/03/14 06:37:12;;;;;;;1.55;1.23;;;5.30;1.00;;;;;;5074736;28;20494;-78
2021/03/14 06:39:50;;;;;;;0.52;0.52;;;5.30;1.00;;;;;;5075396;28;20195;-78
2021/03/14 06:42:39;;;;;;;2.88;0.70;;;5.30;1.00;;;;;;5074115;28;20977;-78
2021/03/14 06:45:12;;;;;;;0.88;0.63;;;5.40;1.00;;;;;;5080056;28;20187;-78
2021/03/14 06:47:57;;;;;;;1.50;0.68;;;5.50;1.00;;;;;;5075815;28;20505;-78
2021/03/14 06:50:41;;;;;;;1.15;0.52;;;5.40;1.00;;;;;;5075533;28;20195;-78
2021/03/14 06:53:24;;;;;;;0.87;0.70;;;5.40;1.00;;;;;;5075274;28;20143;-78
2021/03/14 06:56:00;;;;;;;0.70;0.70;;;5.30;1.00;;;;;;5075197;28;20417;-78
2021/03/14 06:58:32;;;;;;;0.70;0.70;;;5.30;1.00;;;;;;5075764;28;20413;-78
2021/03/14 07:01:17;;;;;;;0.60;0.60;;;5.20;1.00;;;;;;5062274;28;20476;-78
2021/03/14 07:03:45;;;;;;;0.50;0.50;;;5.20;1.00;;;;;;5055604;28;20386;-78
2021/03/14 07:06:26;;;;;;;0.67;0.67;;;5.20;1.00;;;;;;5072580;28;20452;-78
2021/03/14 07:09:19;;;;;;;5.97;0.73;;;5.20;1.00;;;;;;5075508;28;20484;-79
2021/03/14 07:11:51;;;;;;;1.65;0.70;;;5.20;1.00;;;;;;5054875;28;20253;-79
2021/03/14 07:14:19;;;;;;;3.47;0.95;;;5.20;1.00;;;;;;5064067;28;20179;-78
2021/03/14 07:16:59;;;;;;;4.50;1.10;;;5.20;1.00;;;;;;5072695;28;20250;-79
2021/03/14 07:19:33;;;;;;;1.25;0.70;;;5.20;1.00;;;;;;5074447;28;20167;-78
2021/03/14 07:22:11;;;;;;;1.23;0.80;;;5.20;1.00;;;;;;5074891;28;20222;-78
2021/03/14 07:24:57;;;;;;;0.70;0.70;;;5.30;1.00;;;;;;5069789;28;20221;-78
2021/03/14 07:27:33;;;;;;;1.80;0.70;;;5.20;1.00;;;;;;5071162;28;20228;-79
2021/03/14 07:30:17;;;;;;;1.15;0.63;;;5.20;1.00;;;;;;5065536;28;20741;-79
2021/03/14 07:33:21;;;;;;;2.15;0.63;;;5.30;1.00;;;;;;5053982;28;20193;-78
2021/03/14 07:35:52;;;;;;;3.20;1.00;;;5.30;1.00;;;;;;5055589;28;20633;-72
2021/03/14 07:38:17;;;;;;;0.50;0.50;;;5.30;1.00;;;;;;5054344;28;20212;-73
2021/03/14 07:40:43;;;;;;;1.10;0.80;;;5.30;1.00;;;;;;5059352;28;20175;-72
2021/03/14 07:43:09;;;;;;;1.87;0.80;;;5.30;1.00;;;;;;5074276;28;20143;-72
2021/03/14 07:45:37;;;;;;;2.50;1.03;;;5.40;1.00;;;;;;5068217;28;20197;-73
2021/03/14 07:48:03;;;;;;;4.27;0.60;;;5.40;1.00;;;;;;5074325;28;20549;-72
2021/03/14 07:50:32;;;;;;;0.77;0.77;;;5.50;1.00;;;;;;5072816;28;20555;-78
2021/03/14 07:53:10;;;;;;;1.13;0.70;;;5.60;1.00;;;;;;5064913;28;20198;-78
2021/03/14 07:55:40;;;;;;;0.80;0.80;;;5.60;1.00;;;;;;5071326;28;20428;-78
2021/03/14 07:58:11;;;;;;;5.93;0.67;;;5.80;1.00;;;;;;5071075;28;20172;-78
2021/03/14 08:00:38;;;;;;;0.50;0.50;;;5.90;1.00;;;;;;5067167;28;20440;-78
2021/03/14 08:03:09;;;;;;;0.80;0.80;;;6.00;1.00;;;;;;5072439;28;20415;-78
2021/03/14 08:05:41;;;;;;;2.13;0.77;;;6.00;1.00;;;;;;5061657;28;20420;-78
2021/03/14 08:08:11;;;;;;;2.00;0.90;;;6.10;1.00;;;;;;5071636;28;20406;-78
2021/03/14 08:10:46;;;;;;;5.70;1.00;;;6.20;1.00;;;;;;5070928;28;20452;-78
2021/03/14 08:16:15;;;;;;;0.80;0.77;;;6.40;1.00;;;;;;5073406;28;20400;-85
2021/03/14 08:18:48;;;;;;;2.67;1.13;;;6.50;1.00;;;;;;5073702;28;20413;-79
2021/03/14 08:21:22;;;;;;;2.50;0.70;;;6.50;1.00;;;;;;5071380;28;20410;-72
2021/03/14 08:23:53;;;;;;;1.13;1.00;;;6.70;1.00;;;;;;5073556;28;20394;-72
2021/03/14 08:26:20;;;;;;;8.80;1.10;;;6.90;1.00;;;;;;5059196;28;20424;-72
2021/03/14 08:29:03;;;;;;;1.17;0.80;;;7.10;1.00;;;;;;5067117;28;20433;-72
2021/03/14 08:31:45;;;;;;;1.37;0.73;;;7.40;1.00;;;;;;5053509;28;20961;-73
2021/03/14 08:34:26;;;;;;;0.87;0.87;;;7.70;1.00;;;;;;5054109;28;20481;-72
2021/03/14 08:36:58;;;;;;;1.03;0.73;;;7.80;1.00;;;;;;5054383;28;20402;-78
2021/03/14 08:39:34;;;;;;;1.97;1.03;;;8.10;1.00;;;;;;5055412;28;20430;-78
2021/03/14 08:42:02;;;;;;;3.73;0.80;;;8.10;1.00;;;;;;5074244;28;20440;-78
2021/03/14 08:44:40;;;;;;;0.80;0.70;;;8.30;1.00;;;;;;5076213;28;20420;-78
2021/03/14 08:47:21;;;;;;;1.53;0.53;;;8.30;1.00;;;;;;5060421;28;20386;-77
2021/03/14 08:49:55;;;;;;;2.83;0.63;;;8.40;1.00;;;;;;5069657;28;20424;-78
2021/03/14 08:52:21;;;;;;;2.40;1.23;;;8.40;1.00;;;;;;5080411;28;20441;-72
2021/03/14 08:54:51;;;;;;;2.20;0.60;;;8.40;1.00;;;;;;5073572;28;20488;-72
2021/03/14 08:57:18;;;;;;;3.43;0.70;;;8.40;1.00;;;;;;5059965;28;20390;-72
2021/03/14 08:59:49;;;;;;;0.90;0.70;;;8.50;1.00;;;;;;5075205;28;20405;-72
2021/03/14 09:02:32;;;;;;;0.70;0.60;;;8.60;1.00;;;;;;5063783;28;20433;-72
2021/03/14 09:05:19;;;;;;;1.23;0.70;;;8.50;1.00;;;;;;5072726;28;20413;-73
2021/03/14 09:08:21;;;;;;;1.43;0.80;;;8.50;1.00;;;;;;5070418;28;20418;-77
2021/03/14 09:10:47;;;;;;;0.80;0.80;;;8.30;1.00;;;;;;5077598;28;20951;-78
2021/03/14 09:13:13;;;;;;;1.00;0.83;;;;;;;;;;5079471;28;20419;-78
2021/03/14 09:15:49;;;;;;;0.87;0.77;;;8.00;1.00;;;;;;5066566;28;20406;-78
2021/03/14 09:18:22;;;;;;;0.87;0.70;;;7.90;1.00;;;;;;5077637;28;20431;-78
2021/03/14 09:20:57;;;;;;;1.90;0.70;;;7.90;1.00;;;;;;5079625;28;20771;-74
2021/03/14 09:23:22;;;;;;;1.27;0.90;;;7.90;1.00;;;;;;5079529;28;20477;-72
2021/03/14 09:25:53;;;;;;;3.13;0.93;;;8.00;1.00;;;;;;5064791;28;20418;-72
2021/03/14 09:28:20;;;;;;;4.40;1.23;;;;;;;;;;5074016;28;20187;-72
2021/03/14 09:30:46;;;;;;;4.37;1.10;;;;;;;;;;5077435;28;20818;-72
2021/03/14 09:33:12;;;;;;;5.87;1.03;;;8.30;1.00;;;;;;5079414;28;20743;-72
2021/03/14 09:35:40;;;;;;;5.53;1.00;;;8.30;1.00;;;;;;5071272;28;20441;-72
2021/03/14 09:38:11;;;;;;;2.20;1.07;;;8.30;1.00;;;;;;5074663;28;20476;-79
2021/03/14 09:40:42;;;;;;;3.27;0.70;;;8.50;1.00;;;;;;5079545;28;20404;-78
2021/03/14 09:43:16;;;;;;;4.10;0.70;;;8.70;1.00;;;;;;5079240;28;20428;-78
2021/03/14 09:46:00;;;;;;;2.03;0.93;;;8.70;1.00;;;;;;5064373;28;20415;-77
2021/03/14 09:48:31;;;;;;;4.40;0.90;;;8.70;1.00;;;;;;5075529;28;20582;-80
2021/03/14 09:51:08;;;;;;;4.10;0.67;;;8.70;1.00;;;;;;5077855;28;20501;-81
2021/03/14 09:53:40;;;;;;;1.27;0.70;;;8.80;1.00;;;;;;5078692;28;20409;-79
2021/03/14 09:56:14;;;;;;;1.23;0.70;;;8.80;1.00;;;;;;5058580;28;20432;-81
2021/03/14 09:58:51;;;;;;;1.90;1.00;;;8.80;1.00;;;;;;5074872;28;20451;-80
2021/03/14 10:01:27;;;;;;;3.93;0.90;;;9.00;1.00;;;;;;5057563;28;20418;-80
2021/03/14 10:04:15;;;;;;;0.77;0.73;;;9.30;1.00;;;;;;5056466;28;20390;-77
2021/03/14 10:06:41;;;;;;;0.80;0.80;;;9.30;1.00;;;;;;5063371;28;20428;-80
2021/03/14 10:09:07;;;;;;;5.30;1.23;;;9.30;1.00;;;;;;5075927;28;20610;-80
2021/03/14 10:11:33;;;;;;;7.37;0.80;;;9.20;1.00;;;;;;5075912;28;20566;-80
2021/03/14 10:14:16;;;;;;;1.57;1.03;;;9.20;1.00;;;;;;5075854;28;21039;-80
2021/03/14 10:16:48;;;;;;;4.80;1.10;;;8.90;1.00;;;;;;5078946;28;20458;-80
2021/03/14 10:19:15;;;;;;;1.33;1.20;;;8.90;1.00;;;;;;5088126;28;20428;-81
2021/03/14 10:21:46;;;;;;;6.87;1.17;;;9.10;1.00;;;;;;5071714;28;20417;-71
2021/03/14 10:24:16;;;;;;;1.83;0.80;;;9.20;1.00;;;;;;5075423;28;20409;-72
2021/03/14 10:26:56;;;;;;;3.53;0.93;;;9.30;1.00;;;;;;5075048;28;20805;-72
2021/03/14 10:29:28;;;;;;;4.43;1.40;;;9.30;1.00;;;;;;5073726;28;20455;-72
2021/03/14 10:31:54;;;;;;;0.63;0.63;;;9.40;1.00;;;;;;5073207;28;20480;-72
2021/03/14 10:34:23;;;;;;;1.57;0.80;;;9.40;1.00;;;;;;5075471;28;20392;-73
2021/03/14 10:36:49;;;;;;;3.47;1.30;;;9.30;1.00;;;;;;5075796;28;20406;-73
2021/03/14 10:39:26;;;;;;;6.03;0.90;;;9.30;1.00;;;;;;5075292;28;20463;-72
2021/03/14 10:41:51;;;;;;;3.30;0.90;;;9.40;1.00;;;;;;5075419;28;20404;-72
2021/03/14 10:44:22;;;;;;;2.33;1.03;;;9.40;1.00;;;;;;5074243;28;20433;-72
2021/03/14 10:46:50;;;;;;;1.97;1.00;;;9.40;1.00;;;;;;5075308;28;20425;-72
2021/03/14 10:49:25;;;;;;;2.87;0.80;;;9.50;1.00;;;;;;5075151;28;20783;-72
2021/03/14 10:51:53;;;;;;;4.30;0.80;;;9.30;1.00;;;;;;5074553;28;20460;-72
2021/03/14 10:54:19;;;;;;;0.70;0.70;;;9.00;1.00;;;;;;5073975;28;20429;-71
2021/03/14 10:56:46;;;;;;;2.40;0.77;;;8.70;1.00;;;;;;5075162;28;20430;-72
2021/03/14 10:59:28;;;;;;;2.87;1.07;;;8.70;1.00;;;;;;5075183;28;20397;-71
2021/03/14 11:02:11;;;;;;;1.20;1.10;;;8.90;1.00;;;;;;5075136;28;20466;-72
2021/03/14 11:04:38;;;;;;;3.73;1.10;;;9.30;1.00;;;;;;5074775;28;20436;-72
2021/03/14 11:07:22;;;;;;;1.57;0.90;;;9.60;1.00;;;;;;5073477;28;20876;-72
2021/03/14 11:09:48;;;;;;;2.17;1.00;;;;;;;;;;5074195;28;20504;-77
2021/03/14 11:12:45;;;;;;;1.00;0.93;;;9.60;1.00;;;;;;5073979;28;20496;-76
2021/03/14 11:15:30;;;;;;;1.97;1.20;;;9.60;1.00;;;;;;5051872;28;21034;-77
2021/03/14 11:17:58;;;;;;;1.17;1.00;;;9.60;1.00;;;;;;5051551;28;20480;-77
2021/03/14 11:20:25;;;;;;;7.30;1.17;;;9.60;1.00;;;;;;5051815;28;20503;-77
2021/03/14 11:22:53;;;;;;;1.17;1.00;;;9.40;1.00;;;;;;5051888;28;20903;-77
2021/03/14 11:25:19;;;;;;;1.40;1.10;;;9.40;1.00;;;;;;5051475;28;20493;-77
2021/03/14 11:27:47;;;;;;;0.97;0.70;;;9.50;1.00;;;;;;5051678;28;20417;-77
2021/03/14 11:30:14;;;;;;;2.30;1.10;;;9.60;1.00;;;;;;5044399;28;20457;-77
2021/03/14 11:32:40;;;;;;;3.73;1.00;;;9.50;1.00;;;;;;5050922;28;20434;-77
2021/03/14 11:35:06;;;;;;;1.73;1.07;;;9.40;1.00;;;;;;5051548;28;20437;-77
2021/03/14 11:37:32;;;;;;;2.73;0.83;;;;;;;;;;5051861;28;20464;-72
2021/03/14 11:39:58;;;;;;;2.20;0.90;;;;;;;;;;5051157;28;20433;-72
2021/03/14 11:42:24;;;;;;;1.57;1.20;;;;;;;;;;5050044;28;20445;-72
2021/03/14 11:44:50;;;;;;;1.50;0.87;;;;;;;;;;5051122;28;20865;-71
2021/03/14 11:47:16;;;;;;;1.00;0.90;;;;;;;;;;5051151;28;20878;-72
2021/03/14 11:49:42;;;;;;;1.13;0.90;;;;;;;;;;5050949;28;20407;-72
2021/03/14 11:52:08;;;;;;;2.23;0.80;;;;;;;;;;5052729;28;20476;-71
2021/03/14 11:54:34;;;;;;;0.70;0.70;;;;;;;;;;5052466;28;20403;-77
2021/03/14 11:57:00;;;;;;;2.33;0.70;;;;;;;;;;5053398;28;20387;-77
2021/03/14 11:59:26;;;;;;;1.33;0.83;;;;;;;;;;5053293;28;20790;-76
2021/03/14 12:01:52;;;;;;;1.47;1.00;;;;;;;;;;5052116;28;20424;-77
2021/03/14 12:04:18;;;;;;;3.40;0.90;;;;;;;;;;5053173;28;20508;-78
2021/03/14 12:06:44;;;;;;;4.10;1.50;;;;;;;;;;5053256;28;20401;-75
2021/03/14 12:09:10;;;;;;;0.77;0.77;;;;;;;;;;5057137;28;20417;-72
2021/03/14 12:11:37;;;;;;;0.73;0.73;;;;;;;;;;5072839;28;20532;-73
2021/03/14 12:14:03;;;;;;;0.90;0.90;;;;;;;;;;5072875;28;20390;-71
2021/03/14 12:16:29;;;;;;;1.90;1.23;;;;;;;;;;5072752;28;20473;-71
2021/03/14 12:18:55;;;;;;;5.40;1.10;;;;;;;;;;5072401;28;20394;-72
2021/03/14 12:21:21;;;;;;;0.70;0.70;;;;;;;;;;5073013;28;20511;-73
2021/03/14 12:23:47;;;;;;;1.33;1.20;;;9.30;1.00;;;;;;5072852;28;20394;-73
2021/03/14 12:26:13;;;;;;;2.97;0.97;;;;;;;;;;5072797;28;20416;-72
2021/03/14 12:28:39;;;;;;;3.53;0.90;;;;;;;;;;5071581;28;20186;-72
2021/03/14 12:31:05;;;;;;;0.70;0.70;;;9.50;1.00;;;;;;5070605;28;20843;-72
2021/03/14 12:33:31;;;;;;;1.10;1.00;;;9.40;1.00;;;;;;5072359;28;20547;-72
2021/03/14 12:35:57;;;;;;;1.00;0.90;;;9.30;1.00;;;;;;5073277;28;20179;-72
2021/03/14 12:38:23;;;;;;;1.03;1.00;;;9.20;1.00;;;;;;5072598;28;20417;-74
2021/03/14 12:40:57;;;;;;;1.90;0.77;;;9.20;1.00;;;;;;5066405;28;20430;-79
2021/03/14 12:43:24;;;;;;;0.97;0.70;;;9.30;1.00;;;;;;5072397;28;20440;-79
2021/03/14 12:45:51;;;;;;;0.70;0.70;;;9.30;1.00;;;;;;5064018;28;20775;-81
2021/03/14 12:48:21;;;;;;;1.37;0.70;;;9.30;1.00;;;;;;5053832;28;20860;-83
2021/03/14 12:50:48;;;;;;;0.97;0.93;;;;;;;;;;5053506;28;20453;-76
2021/03/14 12:53:14;;;;;;;0.80;0.80;;;9.40;1.00;;;;;;5053958;28;20763;-75
2021/03/14 12:55:40;;;;;;;0.70;0.70;;;9.50;1.00;;;;;;5053770;28;20406;-76
2021/03/14 12:58:06;;;;;;;6.50;1.03;;;9.40;1.00;;;;;;5059352;28;20505;-74
2021/03/14 13:00:32;;;;;;;0.80;0.70;;;9.20;1.00;;;;;;5062084;28;20433;-75
2021/03/14 13:02:58;;;;;;;1.67;0.90;;;9.20;1.00;;;;;;5053569;28;20242;-75
2021/03/14 13:05:25;;;;;;;1.00;0.80;;;9.30;1.00;;;;;;5065482;28;20183;-75
2021/03/14 13:07:51;;;;;;;0.70;0.70;;;;;;;;;;5072440;28;20520;-74
2021/03/14 13:10:17;;;;;;;0.60;0.60;;;9.40;1.00;;;;;;5071737;28;20458;-75
2021/03/14 13:12:43;;;;;;;0.70;0.70;;;;;;;;;;5059644;28;20418;-75
2021/03/14 13:15:10;;;;;;;0.80;0.80;;;9.20;1.00;;;;;;5071132;28;20187;-75
2021/03/14 13:17:36;;;;;;;1.10;1.00;;;9.20;1.00;;;;;;5071950;28;20504;-75
2021/03/14 13:20:05;;;;;;;0.77;0.70;;;9.20;1.00;;;;;;5072987;28;20443;-75
2021/03/14 13:22:32;;;;;;;1.00;0.90;;;;;;;;;;5083024;28;20813;-75
2021/03/14 13:24:58;;;;;;;0.90;0.90;;;9.20;1.00;;;;;;5092824;28;20880;-72
2021/03/14 13:27:24;;;;;;;0.50;0.50;;;9.20;1.00;;;;;;5091367;28;20435;-72
2021/03/14 13:29:55;;;;;;;0.60;0.60;;;9.00;1.00;;;;;;5085236;28;20175;-72
2021/03/14 13:32:23;;;;;;;0.83;0.83;;;9.00;1.00;;;;;;5074233;28;20824;-72
2021/03/14 13:34:49;;;;;;;0.70;0.70;;;8.90;1.00;;;;;;5075844;28;20463;-72
2021/03/14 13:37:16;;;;;;;0.73;0.60;;;;;;;;;;5075988;28;20761;-72
2021/03/14 13:39:43;;;;;;;0.80;0.80;;;8.70;1.00;;;;;;5075726;28;20943;-72
2021/03/14 13:42:09;;;;;;;0.80;0.70;;;8.70;1.00;;;;;;5077126;28;20410;-75